sensor_id;sensor_type;location;lat;lon;timestamp;pressure;altitude;pressure_sealevel;temperature;humidity
44044;BME280;29709;52.396;16.796;2023-03-22T00:02:54;101417.21;;;10.97;74.65
44044;BME280;29709;52.396;16.796;2023-03-22T00:06:08;101411.29;;;10.92;74.78
44044;BME280;29709;52.396;16.796;2023-03-22T00:09:22;101408.54;;;10.92;74.92
44044;BME280;29709;52.396;16.796;2023-03-22T00:12:35;101405.64;;;10.94;75.51
44044;BME280;29709;52.396;16.796;2023-03-22T00:15:48;101405.89;;;11.01;74.91
44044;BME280;29709;52.396;16.796;2023-03-22T00:19:02;101396.61;;;11.02;75.11
44044;BME280;29709;52.396;16.796;2023-03-22T00:22:15;101385.32;;;11.05;75.03
44044;BME280;29709;52.396;16.796;2023-03-22T00:25:29;101397.40;;;11.12;75.09
44044;BME280;29709;52.396;16.796;2023-03-22T00:28:42;101381.14;;;11.18;75.00
44044;BME280;29709;52.396;16.796;2023-03-22T00:31:56;101393.26;;;11.25;74.54
44044;BME280;29709;52.396;16.796;2023-03-22T00:35:10;101375.71;;;11.26;74.19
44044;BME280;29709;52.396;16.796;2023-03-22T00:38:25;101377.43;;;11.27;74.25
44044;BME280;29709;52.396;16.796;2023-03-22T00:41:48;101372.10;;;11.26;74.19
44044;BME280;29709;52.396;16.796;2023-03-22T00:45:04;101364.84;;;11.25;74.04
44044;BME280;29709;52.396;16.796;2023-03-22T00:48:18;101356.91;;;11.22;74.30
44044;BME280;29709;52.396;16.796;2023-03-22T00:51:33;101351.73;;;11.19;74.47
44044;BME280;29709;52.396;16.796;2023-03-22T00:54:46;101351.90;;;11.17;74.41
44044;BME280;29709;52.396;16.796;2023-03-22T00:58:00;101356.70;;;11.15;74.57
44044;BME280;29709;52.396;16.796;2023-03-22T01:01:13;101355.80;;;11.15;74.60
44044;BME280;29709;52.396;16.796;2023-03-22T01:04:26;101366.52;;;11.18;74.64
44044;BME280;29709;52.396;16.796;2023-03-22T01:07:43;101360.16;;;11.17;74.60
44044;BME280;29709;52.396;16.796;2023-03-22T01:10:56;101365.16;;;11.22;75.08
44044;BME280;29709;52.396;16.796;2023-03-22T01:14:09;101359.20;;;11.26;75.48
44044;BME280;29709;52.396;16.796;2023-03-22T01:17:28;101351.48;;;11.30;75.01
44044;BME280;29709;52.396;16.796;2023-03-22T01:20:41;101345.44;;;11.26;75.10
44044;BME280;29709;52.396;16.796;2023-03-22T01:23:54;101334.73;;;11.23;75.23
44044;BME280;29709;52.396;16.796;2023-03-22T01:27:07;101331.45;;;11.20;75.40
44044;BME280;29709;52.396;16.796;2023-03-22T01:30:21;101322.50;;;11.18;75.49
44044;BME280;29709;52.396;16.796;2023-03-22T01:33:34;101317.45;;;11.13;75.76
44044;BME280;29709;52.396;16.796;2023-03-22T01:36:47;101312.13;;;11.12;75.75
44044;BME280;29709;52.396;16.796;2023-03-22T01:40:02;101314.86;;;11.12;75.88
44044;BME280;29709;52.396;16.796;2023-03-22T01:43:16;101307.30;;;11.14;75.74
44044;BME280;29709;52.396;16.796;2023-03-22T01:46:29;101299.02;;;11.06;76.27
44044;BME280;29709;52.396;16.796;2023-03-22T01:49:45;101297.99;;;11.07;76.14
44044;BME280;29709;52.396;16.796;2023-03-22T01:53:00;101301.04;;;11.04;76.54
44044;BME280;29709;52.396;16.796;2023-03-22T01:56:21;101293.11;;;11.01;77.03
44044;BME280;29709;52.396;16.796;2023-03-22T01:59:35;101298.53;;;10.92;77.64
44044;BME280;29709;52.396;16.796;2023-03-22T02:02:51;101291.80;;;10.87;78.38
44044;BME280;29709;52.396;16.796;2023-03-22T02:06:04;101292.34;;;10.90;78.31
44044;BME280;29709;52.396;16.796;2023-03-22T02:09:19;101280.23;;;10.83;78.49
44044;BME280;29709;52.396;16.796;2023-03-22T02:19:43;101280.80;;;10.69;79.70
44044;BME280;29709;52.396;16.796;2023-03-22T02:36:57;101282.52;;;10.52;81.55
44044;BME280;29709;52.396;16.796;2023-03-22T02:40:20;101278.20;;;10.50;81.85
44044;BME280;29709;52.396;16.796;2023-03-22T02:43:45;101285.91;;;10.46;82.34
44044;BME280;29709;52.396;16.796;2023-03-22T02:47:10;101283.71;;;10.50;82.22
44044;BME280;29709;52.396;16.796;2023-03-22T02:53:56;101278.91;;;10.52;82.55
44044;BME280;29709;52.396;16.796;2023-03-22T02:57:24;101278.20;;;10.50;83.42
44044;BME280;29709;52.396;16.796;2023-03-22T03:00:40;101279.72;;;10.44;83.52
44044;BME280;29709;52.396;16.796;2023-03-22T03:03:58;101281.59;;;10.44;83.33
44044;BME280;29709;52.396;16.796;2023-03-22T03:07:17;101283.61;;;10.41;83.67
44044;BME280;29709;52.396;16.796;2023-03-22T03:10:32;101279.13;;;10.40;84.51
44044;BME280;29709;52.396;16.796;2023-03-22T03:13:47;101281.02;;;10.40;83.81
44044;BME280;29709;52.396;16.796;2023-03-22T03:27:18;101280.23;;;10.30;85.52
44044;BME280;29709;52.396;16.796;2023-03-22T03:30:46;101273.58;;;10.32;84.91
44044;BME280;29709;52.396;16.796;2023-03-22T03:37:34;101271.82;;;10.31;86.20
44044;BME280;29709;52.396;16.796;2023-03-22T03:40:58;101269.66;;;10.35;85.80
44044;BME280;29709;52.396;16.796;2023-03-22T03:44:12;101270.96;;;10.31;86.29
44044;BME280;29709;52.396;16.796;2023-03-22T03:47:27;101272.71;;;10.32;86.69
44044;BME280;29709;52.396;16.796;2023-03-22T03:50:46;101264.32;;;10.33;86.54
44044;BME280;29709;52.396;16.796;2023-03-22T03:54:02;101265.72;;;10.37;87.26
44044;BME280;29709;52.396;16.796;2023-03-22T03:57:16;101264.37;;;10.41;86.32
44044;BME280;29709;52.396;16.796;2023-03-22T04:00:29;101263.83;;;10.38;86.97
44044;BME280;29709;52.396;16.796;2023-03-22T04:03:42;101268.15;;;10.40;86.76
44044;BME280;29709;52.396;16.796;2023-03-22T04:06:58;101258.34;;;10.38;86.84
44044;BME280;29709;52.396;16.796;2023-03-22T04:10:11;101254.03;;;10.35;87.42
44044;BME280;29709;52.396;16.796;2023-03-22T04:13:24;101256.62;;;10.37;87.01
44044;BME280;29709;52.396;16.796;2023-03-22T04:16:38;101255.59;;;10.38;86.88
44044;BME280;29709;52.396;16.796;2023-03-22T04:19:51;101259.11;;;10.30;87.55
44044;BME280;29709;52.396;16.796;2023-03-22T04:23:08;101259.68;;;10.34;87.87
44044;BME280;29709;52.396;16.796;2023-03-22T04:26:22;101266.04;;;10.34;88.31
44044;BME280;29709;52.396;16.796;2023-03-22T04:29:35;101259.52;;;10.35;88.01
44044;BME280;29709;52.396;16.796;2023-03-22T04:32:50;101257.80;;;10.34;88.17
44044;BME280;29709;52.396;16.796;2023-03-22T04:36:05;101260.23;;;10.37;88.89
44044;BME280;29709;52.396;16.796;2023-03-22T04:39:21;101251.21;;;10.45;88.25
44044;BME280;29709;52.396;16.796;2023-03-22T04:42:35;101258.88;;;10.41;88.87
44044;BME280;29709;52.396;16.796;2023-03-22T04:45:48;101251.59;;;10.50;88.46
44044;BME280;29709;52.396;16.796;2023-03-22T04:49:01;101250.98;;;10.56;88.39
44044;BME280;29709;52.396;16.796;2023-03-22T04:52:15;101250.64;;;10.59;88.30
44044;BME280;29709;52.396;16.796;2023-03-22T04:55:28;101258.02;;;10.59;88.37
44044;BME280;29709;52.396;16.796;2023-03-22T04:58:42;101252.38;;;10.60;88.46
44044;BME280;29709;52.396;16.796;2023-03-22T05:01:57;101249.34;;;10.63;88.36
44044;BME280;29709;52.396;16.796;2023-03-22T05:05:10;101247.45;;;10.64;88.84
44044;BME280;29709;52.396;16.796;2023-03-22T05:08:25;101258.81;;;10.69;88.75
44044;BME280;29709;52.396;16.796;2023-03-22T05:11:39;101254.87;;;10.72;88.51
44044;BME280;29709;52.396;16.796;2023-03-22T05:14:52;101243.72;;;10.73;88.28
44044;BME280;29709;52.396;16.796;2023-03-22T05:18:07;101248.35;;;10.73;88.20
44044;BME280;29709;52.396;16.796;2023-03-22T05:21:22;101249.08;;;10.75;88.34
44044;BME280;29709;52.396;16.796;2023-03-22T05:24:40;101256.30;;;10.76;88.30
44044;BME280;29709;52.396;16.796;2023-03-22T05:27:53;101264.39;;;10.77;88.72
44044;BME280;29709;52.396;16.796;2023-03-22T05:31:07;101263.20;;;10.80;88.35
44044;BME280;29709;52.396;16.796;2023-03-22T05:34:23;101262.09;;;10.73;89.71
44044;BME280;29709;52.396;16.796;2023-03-22T05:37:36;101266.89;;;10.70;88.33
44044;BME280;29709;52.396;16.796;2023-03-22T05:40:50;101265.02;;;10.71;88.65
44044;BME280;29709;52.396;16.796;2023-03-22T05:44:04;101270.22;;;10.74;89.32
44044;BME280;29709;52.396;16.796;2023-03-22T05:47:17;101270.27;;;10.82;89.02
44044;BME280;29709;52.396;16.796;2023-03-22T05:50:30;101279.70;;;10.80;89.32
44044;BME280;29709;52.396;16.796;2023-03-22T05:53:47;101275.23;;;10.79;89.19
44044;BME280;29709;52.396;16.796;2023-03-22T05:57:00;101273.01;;;10.82;89.93
44044;BME280;29709;52.396;16.796;2023-03-22T06:00:17;101274.27;;;10.88;89.78
44044;BME280;29709;52.396;16.796;2023-03-22T06:03:30;101272.92;;;10.92;89.30
44044;BME280;29709;52.396;16.796;2023-03-22T06:06:44;101275.05;;;10.98;89.39
44044;BME280;29709;52.396;16.796;2023-03-22T06:09:57;101270.65;;;11.05;89.42
44044;BME280;29709;52.396;16.796;2023-03-22T06:13:10;101272.20;;;11.08;89.53
44044;BME280;29709;52.396;16.796;2023-03-22T06:16:24;101279.77;;;11.06;89.88
44044;BME280;29709;52.396;16.796;2023-03-22T06:19:38;101280.83;;;11.13;89.66
44044;BME280;29709;52.396;16.796;2023-03-22T06:22:51;101268.87;;;11.22;89.73
44044;BME280;29709;52.396;16.796;2023-03-22T06:26:04;101269.44;;;11.25;89.79
44044;BME280;29709;52.396;16.796;2023-03-22T06:29:18;101276.86;;;11.33;89.68
44044;BME280;29709;52.396;16.796;2023-03-22T06:32:31;101276.21;;;11.39;89.72
44044;BME280;29709;52.396;16.796;2023-03-22T06:35:44;101285.70;;;11.45;89.48
44044;BME280;29709;52.396;16.796;2023-03-22T06:38:57;101268.88;;;11.48;89.48
44044;BME280;29709;52.396;16.796;2023-03-22T06:42:14;101279.89;;;11.48;89.50
44044;BME280;29709;52.396;16.796;2023-03-22T06:45:27;101277.30;;;11.46;89.31
44044;BME280;29709;52.396;16.796;2023-03-22T06:48:45;101277.66;;;11.51;89.45
44044;BME280;29709;52.396;16.796;2023-03-22T06:51:58;101278.59;;;11.60;89.59
44044;BME280;29709;52.396;16.796;2023-03-22T06:55:11;101280.13;;;11.63;89.23
44044;BME280;29709;52.396;16.796;2023-03-22T06:58:24;101280.35;;;11.69;88.78
44044;BME280;29709;52.396;16.796;2023-03-22T07:01:38;101275.71;;;11.70;88.54
44044;BME280;29709;52.396;16.796;2023-03-22T07:04:52;101272.27;;;11.68;88.77
44044;BME280;29709;52.396;16.796;2023-03-22T07:08:05;101276.57;;;11.70;88.46
44044;BME280;29709;52.396;16.796;2023-03-22T07:11:18;101273.65;;;11.72;88.64
44044;BME280;29709;52.396;16.796;2023-03-22T07:14:32;101280.71;;;11.74;89.08
44044;BME280;29709;52.396;16.796;2023-03-22T07:17:45;101272.88;;;11.88;89.24
44044;BME280;29709;52.396;16.796;2023-03-22T07:20:58;101268.69;;;12.09;88.99
44044;BME280;29709;52.396;16.796;2023-03-22T07:24:12;101268.06;;;12.32;88.77
44044;BME280;29709;52.396;16.796;2023-03-22T07:27:25;101258.29;;;12.54;88.78
44044;BME280;29709;52.396;16.796;2023-03-22T07:30:39;101261.76;;;12.72;87.38
44044;BME280;29709;52.396;16.796;2023-03-22T07:33:53;101245.38;;;12.87;87.41
44044;BME280;29709;52.396;16.796;2023-03-22T07:37:40;101248.31;;;12.85;86.62
44044;BME280;29709;52.396;16.796;2023-03-22T07:40:54;101251.09;;;12.93;86.66
44044;BME280;29709;52.396;16.796;2023-03-22T07:44:07;101242.96;;;13.08;86.36
44044;BME280;29709;52.396;16.796;2023-03-22T07:47:21;101252.44;;;13.22;85.99
44044;BME280;29709;52.396;16.796;2023-03-22T07:50:35;101254.84;;;13.41;85.74
44044;BME280;29709;52.396;16.796;2023-03-22T07:53:48;101251.52;;;13.54;85.26
44044;BME280;29709;52.396;16.796;2023-03-22T07:57:02;101242.90;;;13.57;84.29
44044;BME280;29709;52.396;16.796;2023-03-22T08:00:16;101258.08;;;13.61;84.13
44044;BME280;29709;52.396;16.796;2023-03-22T08:03:30;101255.66;;;13.66;83.76
44044;BME280;29709;52.396;16.796;2023-03-22T08:06:43;101246.84;;;13.63;83.22
44044;BME280;29709;52.396;16.796;2023-03-22T08:09:58;101249.60;;;13.63;83.15
44044;BME280;29709;52.396;16.796;2023-03-22T08:13:11;101256.18;;;13.53;82.75
44044;BME280;29709;52.396;16.796;2023-03-22T08:16:24;101249.99;;;13.43;82.71
44044;BME280;29709;52.396;16.796;2023-03-22T08:19:38;101247.23;;;13.43;82.90
44044;BME280;29709;52.396;16.796;2023-03-22T08:22:52;101251.21;;;13.41;82.39
44044;BME280;29709;52.396;16.796;2023-03-22T08:26:05;101248.47;;;13.33;82.61
44044;BME280;29709;52.396;16.796;2023-03-22T08:29:18;101249.12;;;13.43;82.30
44044;BME280;29709;52.396;16.796;2023-03-22T08:32:35;101247.22;;;13.51;81.77
44044;BME280;29709;52.396;16.796;2023-03-22T08:35:49;101246.34;;;13.59;81.86
44044;BME280;29709;52.396;16.796;2023-03-22T08:39:03;101233.21;;;13.61;80.79
44044;BME280;29709;52.396;16.796;2023-03-22T08:42:17;101238.73;;;13.61;81.04
44044;BME280;29709;52.396;16.796;2023-03-22T08:45:30;101234.75;;;13.64;80.90
44044;BME280;29709;52.396;16.796;2023-03-22T08:48:43;101238.55;;;13.63;79.87
44044;BME280;29709;52.396;16.796;2023-03-22T08:52:02;101237.02;;;13.60;80.17
44044;BME280;29709;52.396;16.796;2023-03-22T08:55:19;101235.75;;;13.79;80.07
44044;BME280;29709;52.396;16.796;2023-03-22T08:58:32;101230.98;;;13.96;80.64
44044;BME280;29709;52.396;16.796;2023-03-22T09:01:45;101228.07;;;13.97;78.94
44044;BME280;29709;52.396;16.796;2023-03-22T09:04:58;101232.21;;;13.93;78.48
44044;BME280;29709;52.396;16.796;2023-03-22T09:08:11;101231.73;;;13.90;78.52
44044;BME280;29709;52.396;16.796;2023-03-22T09:11:24;101229.65;;;13.92;78.78
44044;BME280;29709;52.396;16.796;2023-03-22T09:14:37;101228.97;;;13.90;78.62
44044;BME280;29709;52.396;16.796;2023-03-22T09:17:51;101231.35;;;13.93;78.06
44044;BME280;29709;52.396;16.796;2023-03-22T09:21:06;101234.28;;;13.99;77.92
44044;BME280;29709;52.396;16.796;2023-03-22T09:24:20;101232.67;;;14.05;77.44
44044;BME280;29709;52.396;16.796;2023-03-22T09:27:33;101239.77;;;14.07;77.69
44044;BME280;29709;52.396;16.796;2023-03-22T09:30:46;101237.27;;;14.21;76.83
44044;BME280;29709;52.396;16.796;2023-03-22T09:33:59;101234.09;;;14.32;76.29
44044;BME280;29709;52.396;16.796;2023-03-22T09:37:13;101239.58;;;14.40;74.88
44044;BME280;29709;52.396;16.796;2023-03-22T09:40:29;101229.09;;;14.58;76.16
44044;BME280;29709;52.396;16.796;2023-03-22T09:43:50;101229.11;;;14.81;75.48
44044;BME280;29709;52.396;16.796;2023-03-22T09:47:09;101216.74;;;14.92;74.91
44044;BME280;29709;52.396;16.796;2023-03-22T09:50:28;101221.41;;;14.91;74.48
44044;BME280;29709;52.396;16.796;2023-03-22T09:53:43;101216.28;;;15.03;74.17
44044;BME280;29709;52.396;16.796;2023-03-22T09:57:03;101213.32;;;15.05;74.30
44044;BME280;29709;52.396;16.796;2023-03-22T10:10:39;101199.61;;;15.26;71.59
44044;BME280;29709;52.396;16.796;2023-03-22T10:14:19;101203.90;;;15.28;71.09
44044;BME280;29709;52.396;16.796;2023-03-22T10:17:24;101202.10;;;15.36;71.54
44044;BME280;29709;52.396;16.796;2023-03-22T10:24:14;101198.48;;;15.35;70.94
44044;BME280;29709;52.396;16.796;2023-03-22T10:27:29;101200.59;;;15.33;71.06
44044;BME280;29709;52.396;16.796;2023-03-22T10:30:46;101186.04;;;15.31;70.62
44044;BME280;29709;52.396;16.796;2023-03-22T10:34:13;101195.87;;;15.19;70.41
44044;BME280;29709;52.396;16.796;2023-03-22T10:37:33;101188.93;;;15.23;70.26
44044;BME280;29709;52.396;16.796;2023-03-22T10:40:48;101186.73;;;15.33;71.32
44044;BME280;29709;52.396;16.796;2023-03-22T10:44:04;101185.76;;;15.41;70.57
44044;BME280;29709;52.396;16.796;2023-03-22T10:47:26;101184.63;;;15.35;70.70
44044;BME280;29709;52.396;16.796;2023-03-22T10:50:43;101179.48;;;15.32;70.61
44044;BME280;29709;52.396;16.796;2023-03-22T10:53:58;101177.55;;;15.47;70.14
44044;BME280;29709;52.396;16.796;2023-03-22T10:57:14;101180.59;;;15.52;69.86
44044;BME280;29709;52.396;16.796;2023-03-22T11:00:27;101181.08;;;15.41;69.52
44044;BME280;29709;52.396;16.796;2023-03-22T11:03:59;101177.76;;;15.46;69.79
44044;BME280;29709;52.396;16.796;2023-03-22T11:07:01;101175.00;;;15.61;69.80
44044;BME280;29709;52.396;16.796;2023-03-22T11:10:23;101180.25;;;15.70;70.44
44044;BME280;29709;52.396;16.796;2023-03-22T11:13:39;101179.95;;;15.80;69.17
44044;BME280;29709;52.396;16.796;2023-03-22T11:16:57;101175.82;;;15.91;69.25
44044;BME280;29709;52.396;16.796;2023-03-22T11:20:15;101175.80;;;16.05;68.72
44044;BME280;29709;52.396;16.796;2023-03-22T11:23:32;101173.06;;;16.27;68.25
44044;BME280;29709;52.396;16.796;2023-03-22T11:37:07;101158.07;;;16.42;66.83
44044;BME280;29709;52.396;16.796;2023-03-22T11:40:26;101158.02;;;16.57;66.65
44044;BME280;29709;52.396;16.796;2023-03-22T11:43:45;101151.24;;;16.88;67.24
44044;BME280;29709;52.396;16.796;2023-03-22T11:47:01;101146.30;;;16.83;65.21
44044;BME280;29709;52.396;16.796;2023-03-22T11:50:25;101158.07;;;16.85;66.13
44044;BME280;29709;52.396;16.796;2023-03-22T11:53:40;101144.55;;;17.03;65.85
44044;BME280;29709;52.396;16.796;2023-03-22T11:56:57;101132.46;;;17.18;66.03
44044;BME280;29709;52.396;16.796;2023-03-22T12:00:20;101135.23;;;17.18;64.12
44044;BME280;29709;52.396;16.796;2023-03-22T12:03:39;101121.12;;;17.13;63.09
44044;BME280;29709;52.396;16.796;2023-03-22T12:06:58;101127.44;;;17.00;63.64
44044;BME280;29709;52.396;16.796;2023-03-22T12:10:21;101122.03;;;17.20;64.34
44044;BME280;29709;52.396;16.796;2023-03-22T12:13:48;101111.68;;;17.42;64.15
44044;BME280;29709;52.396;16.796;2023-03-22T12:17:10;101109.39;;;17.52;63.44
44044;BME280;29709;52.396;16.796;2023-03-22T12:23:58;101122.10;;;17.33;63.33
44044;BME280;29709;52.396;16.796;2023-03-22T12:27:23;101122.10;;;17.33;63.89
44044;BME280;29709;52.396;16.796;2023-03-22T12:30:41;101120.41;;;17.39;63.49
44044;BME280;29709;52.396;16.796;2023-03-22T12:33:59;101117.40;;;17.34;63.49
44044;BME280;29709;52.396;16.796;2023-03-22T12:37:40;101118.19;;;17.21;63.29
44044;BME280;29709;52.396;16.796;2023-03-22T12:40:39;101114.44;;;17.07;64.11
44044;BME280;29709;52.396;16.796;2023-03-22T12:43:59;101105.62;;;16.97;63.87
44044;BME280;29709;52.396;16.796;2023-03-22T12:47:21;101104.81;;;17.03;63.61
44044;BME280;29709;52.396;16.796;2023-03-22T12:50:44;101090.02;;;16.96;63.70
44044;BME280;29709;52.396;16.796;2023-03-22T12:54:00;101088.86;;;16.84;63.59
44044;BME280;29709;52.396;16.796;2023-03-22T13:50:28;101002.34;;;17.69;60.94
44044;BME280;29709;52.396;16.796;2023-03-22T13:53:52;100981.20;;;17.75;61.10
44044;BME280;29709;52.396;16.796;2023-03-22T13:57:15;100987.65;;;17.95;58.91
44044;BME280;29709;52.396;16.796;2023-03-22T14:00:37;100983.38;;;18.06;58.57
44044;BME280;29709;52.396;16.796;2023-03-22T14:03:57;100981.02;;;18.09;57.67
44044;BME280;29709;52.396;16.796;2023-03-22T14:10:48;100977.80;;;17.99;56.63
44044;BME280;29709;52.396;16.796;2023-03-22T14:14:10;100983.12;;;17.81;56.57
44044;BME280;29709;52.396;16.796;2023-03-22T14:17:38;100976.07;;;17.72;57.36
44044;BME280;29709;52.396;16.796;2023-03-22T14:20:58;100975.99;;;17.58;57.56
44044;BME280;29709;52.396;16.796;2023-03-22T14:24:15;100978.14;;;17.56;58.03
44044;BME280;29709;52.396;16.796;2023-03-22T14:27:35;100974.89;;;17.46;58.11
44044;BME280;29709;52.396;16.796;2023-03-22T14:30:48;100970.83;;;17.42;57.66
44044;BME280;29709;52.396;16.796;2023-03-22T14:34:05;100963.10;;;17.38;57.98
44044;BME280;29709;52.396;16.796;2023-03-22T14:37:19;100960.72;;;17.28;57.32
44044;BME280;29709;52.396;16.796;2023-03-22T14:40:36;100956.70;;;17.37;58.40
44044;BME280;29709;52.396;16.796;2023-03-22T14:43:58;100961.20;;;17.45;58.91
44044;BME280;29709;52.396;16.796;2023-03-22T14:47:19;100960.56;;;17.49;59.42
44044;BME280;29709;52.396;16.796;2023-03-22T14:50:46;100957.80;;;17.49;59.01
44044;BME280;29709;52.396;16.796;2023-03-22T14:54:05;100949.70;;;17.54;57.62
44044;BME280;29709;52.396;16.796;2023-03-22T14:57:38;100942.00;;;17.56;56.97
44044;BME280;29709;52.396;16.796;2023-03-22T15:00:51;100943.91;;;17.49;56.44
44044;BME280;29709;52.396;16.796;2023-03-22T15:04:10;100944.75;;;17.43;56.42
44044;BME280;29709;52.396;16.796;2023-03-22T15:07:25;100932.33;;;17.39;56.85
44044;BME280;29709;52.396;16.796;2023-03-22T15:10:41;100933.39;;;17.38;57.49
44044;BME280;29709;52.396;16.796;2023-03-22T15:14:00;100926.99;;;17.31;57.41
44044;BME280;29709;52.396;16.796;2023-03-22T15:17:15;100920.76;;;17.29;58.43
44044;BME280;29709;52.396;16.796;2023-03-22T15:20:33;100915.88;;;17.31;57.59
44044;BME280;29709;52.396;16.796;2023-03-22T15:23:53;100926.53;;;17.27;57.00
44044;BME280;29709;52.396;16.796;2023-03-22T15:27:10;100915.41;;;17.27;57.34
44044;BME280;29709;52.396;16.796;2023-03-22T15:30:31;100917.98;;;17.29;57.06
44044;BME280;29709;52.396;16.796;2023-03-22T15:33:44;100922.68;;;17.28;56.68
44044;BME280;29709;52.396;16.796;2023-03-22T15:37:01;100920.12;;;17.27;57.49
44044;BME280;29709;52.396;16.796;2023-03-22T15:43:47;100916.70;;;17.25;57.68
44044;BME280;29709;52.396;16.796;2023-03-22T15:47:14;100928.67;;;17.25;57.57
44044;BME280;29709;52.396;16.796;2023-03-22T15:50:28;100926.74;;;17.26;57.27
44044;BME280;29709;52.396;16.796;2023-03-22T15:53:48;100922.91;;;17.27;57.48
44044;BME280;29709;52.396;16.796;2023-03-22T16:00:31;100929.06;;;17.16;57.89
44044;BME280;29709;52.396;16.796;2023-03-22T16:03:50;100938.24;;;17.10;57.27
44044;BME280;29709;52.396;16.796;2023-03-22T16:07:04;100932.45;;;17.05;57.21
44044;BME280;29709;52.396;16.796;2023-03-22T16:10:20;100933.50;;;17.03;57.85
44044;BME280;29709;52.396;16.796;2023-03-22T16:13:33;100934.15;;;17.06;58.45
44044;BME280;29709;52.396;16.796;2023-03-22T16:16:56;100929.02;;;17.02;56.60
44044;BME280;29709;52.396;16.796;2023-03-22T16:20:11;100928.17;;;17.02;56.70
44044;BME280;29709;52.396;16.796;2023-03-22T16:23:26;100937.56;;;17.01;57.77
44044;BME280;29709;52.396;16.796;2023-03-22T16:26:45;100937.10;;;16.97;57.37
44044;BME280;29709;52.396;16.796;2023-03-22T16:30:02;100931.12;;;16.94;57.86
44044;BME280;29709;52.396;16.796;2023-03-22T16:33:16;100932.14;;;16.86;57.95
44044;BME280;29709;52.396;16.796;2023-03-22T16:36:31;100932.55;;;16.83;58.85
44044;BME280;29709;52.396;16.796;2023-03-22T16:39:51;100934.69;;;16.81;58.24
44044;BME280;29709;52.396;16.796;2023-03-22T16:43:07;100934.65;;;16.74;59.38
44044;BME280;29709;52.396;16.796;2023-03-22T16:46:24;100929.09;;;16.68;59.09
44044;BME280;29709;52.396;16.796;2023-03-22T16:53:16;100935.14;;;16.57;60.05
44044;BME280;29709;52.396;16.796;2023-03-22T16:56:29;100938.32;;;16.47;59.03
44044;BME280;29709;52.396;16.796;2023-03-22T16:59:46;100935.49;;;16.40;59.55
44044;BME280;29709;52.396;16.796;2023-03-22T17:03:04;100939.05;;;16.34;60.72
44044;BME280;29709;52.396;16.796;2023-03-22T17:06:21;100930.71;;;16.28;59.54
44044;BME280;29709;52.396;16.796;2023-03-22T17:09:38;100930.65;;;16.21;59.78
44044;BME280;29709;52.396;16.796;2023-03-22T17:12:53;100932.34;;;16.15;59.90
44044;BME280;29709;52.396;16.796;2023-03-22T17:16:07;100931.66;;;16.13;60.06
44044;BME280;29709;52.396;16.796;2023-03-22T17:19:22;100934.41;;;16.13;59.58
44044;BME280;29709;52.396;16.796;2023-03-22T17:22:35;100921.84;;;16.11;60.11
44044;BME280;29709;52.396;16.796;2023-03-22T17:25:48;100920.74;;;16.05;60.11
44044;BME280;29709;52.396;16.796;2023-03-22T17:29:04;100919.82;;;15.98;59.88
44044;BME280;29709;52.396;16.796;2023-03-22T17:32:18;100916.60;;;15.95;60.23
44044;BME280;29709;52.396;16.796;2023-03-22T17:35:31;100913.49;;;15.83;60.83
44044;BME280;29709;52.396;16.796;2023-03-22T17:38:48;100913.83;;;15.73;60.94
44044;BME280;29709;52.396;16.796;2023-03-22T17:42:06;100915.05;;;15.64;61.10
44044;BME280;29709;52.396;16.796;2023-03-22T17:45:26;100918.69;;;15.50;61.51
44044;BME280;29709;52.396;16.796;2023-03-22T17:48:40;100916.90;;;15.42;62.49
44044;BME280;29709;52.396;16.796;2023-03-22T17:51:54;100923.97;;;15.23;62.36
44044;BME280;29709;52.396;16.796;2023-03-22T17:55:14;100924.65;;;15.11;62.21
44044;BME280;29709;52.396;16.796;2023-03-22T17:58:28;100923.84;;;14.95;63.48
44044;BME280;29709;52.396;16.796;2023-03-22T18:01:48;100923.48;;;14.84;63.18
44044;BME280;29709;52.396;16.796;2023-03-22T18:05:02;100932.73;;;14.76;63.15
44044;BME280;29709;52.396;16.796;2023-03-22T18:08:17;100926.74;;;14.58;63.37
44044;BME280;29709;52.396;16.796;2023-03-22T18:11:31;100927.41;;;14.45;63.59
44044;BME280;29709;52.396;16.796;2023-03-22T18:14:44;100935.10;;;14.35;64.60
44044;BME280;29709;52.396;16.796;2023-03-22T18:17:57;100933.38;;;14.34;64.41
44044;BME280;29709;52.396;16.796;2023-03-22T18:21:12;100926.88;;;14.27;64.69
44044;BME280;29709;52.396;16.796;2023-03-22T18:24:29;100925.55;;;14.08;64.87
44044;BME280;29709;52.396;16.796;2023-03-22T18:27:42;100931.70;;;13.95;65.50
44044;BME280;29709;52.396;16.796;2023-03-22T18:30:56;100924.84;;;13.91;65.50
44044;BME280;29709;52.396;16.796;2023-03-22T18:34:09;100927.58;;;13.76;65.95
44044;BME280;29709;52.396;16.796;2023-03-22T18:37:23;100924.94;;;13.60;65.61
44044;BME280;29709;52.396;16.796;2023-03-22T18:40:36;100921.63;;;13.42;66.55
44044;BME280;29709;52.396;16.796;2023-03-22T18:43:50;100921.95;;;13.24;67.38
44044;BME280;29709;52.396;16.796;2023-03-22T18:47:03;100929.37;;;13.15;67.78
44044;BME280;29709;52.396;16.796;2023-03-22T18:50:21;100925.05;;;13.13;68.62
44044;BME280;29709;52.396;16.796;2023-03-22T18:53:35;100922.86;;;13.08;68.03
44044;BME280;29709;52.396;16.796;2023-03-22T18:56:48;100926.33;;;13.02;69.04
44044;BME280;29709;52.396;16.796;2023-03-22T19:00:03;100933.93;;;13.00;67.44
44044;BME280;29709;52.396;16.796;2023-03-22T19:03:19;100922.23;;;12.98;68.75
44044;BME280;29709;52.396;16.796;2023-03-22T19:06:32;100924.50;;;12.94;69.01